sensor_id;sensor_type;location;lat;lon;timestamp;P1;durP1;ratioP1;P2;durP2;ratioP2
63012;SDS011;62113;45.624;11.700;2022-10-16T00:01:07;90.77;;;48.97;;
63012;SDS011;62113;45.624;11.700;2022-10-16T00:03:34;85.57;;;47.42;;
63012;SDS011;62113;45.624;11.700;2022-10-16T00:06:00;83.07;;;47.08;;
63012;SDS011;62113;45.624;11.700;2022-10-16T00:08:27;88.97;;;48.50;;
63012;SDS011;62113;45.624;11.700;2022-10-16T00:10:57;81.63;;;46.63;;
63012;SDS011;62113;45.624;11.700;2022-10-16T00:13:28;87.68;;;47.95;;
63012;SDS011;62113;45.624;11.700;2022-10-16T00:15:55;84.07;;;48.00;;
63012;SDS011;62113;45.624;11.700;2022-10-16T00:18:21;88.65;;;48.72;;
63012;SDS011;62113;45.624;11.700;2022-10-16T00:20:47;90.73;;;48.50;;
63012;SDS011;62113;45.624;11.700;2022-10-16T00:23:13;96.30;;;49.10;;
63012;SDS011;62113;45.624;11.700;2022-10-16T00:25:38;87.33;;;50.00;;
63012;SDS011;62113;45.624;11.700;2022-10-16T00:28:04;88.77;;;48.20;;
63012;SDS011;62113;45.624;11.700;2022-10-16T00:30:30;80.53;;;48.03;;
63012;SDS011;62113;45.624;11.700;2022-10-16T00:32:56;84.40;;;48.10;;
63012;SDS011;62113;45.624;11.700;2022-10-16T00:35:21;88.28;;;49.17;;
63012;SDS011;62113;45.624;11.700;2022-10-16T00:37:47;94.77;;;50.50;;
63012;SDS011;62113;45.624;11.700;2022-10-16T00:40:13;87.87;;;49.53;;
63012;SDS011;62113;45.624;11.700;2022-10-16T00:42:38;87.67;;;50.30;;
63012;SDS011;62113;45.624;11.700;2022-10-16T00:45:04;95.37;;;50.80;;
63012;SDS011;62113;45.624;11.700;2022-10-16T00:47:32;89.85;;;50.95;;
63012;SDS011;62113;45.624;11.700;2022-10-16T00:52:44;95.65;;;51.25;;
63012;SDS011;62113;45.624;11.700;2022-10-16T00:55:13;90.53;;;49.72;;
63012;SDS011;62113;45.624;11.700;2022-10-16T00:57:39;84.10;;;49.03;;
63012;SDS011;62113;45.624;11.700;2022-10-16T01:00:06;88.10;;;47.88;;
63012;SDS011;62113;45.624;11.700;2022-10-16T01:02:34;81.90;;;46.97;;
63012;SDS011;62113;45.624;11.700;2022-10-16T01:04:59;85.47;;;49.17;;
63012;SDS011;62113;45.624;11.700;2022-10-16T01:07:36;78.57;;;47.85;;
63012;SDS011;62113;45.624;11.700;2022-10-16T01:13:18;87.43;;;49.75;;
63012;SDS011;62113;45.624;11.700;2022-10-16T01:16:25;88.25;;;49.10;;
63012;SDS011;62113;45.624;11.700;2022-10-16T01:18:47;83.68;;;48.20;;
63012;SDS011;62113;45.624;11.700;2022-10-16T01:22:05;88.38;;;48.97;;
63012;SDS011;62113;45.624;11.700;2022-10-16T01:35:21;96.18;;;50.25;;
63012;SDS011;62113;45.624;11.700;2022-10-16T01:40:20;87.95;;;50.88;;
63012;SDS011;62113;45.624;11.700;2022-10-16T01:42:56;93.65;;;52.22;;
63012;SDS011;62113;45.624;11.700;2022-10-16T01:45:25;90.53;;;51.35;;
63012;SDS011;62113;45.624;11.700;2022-10-16T01:47:55;86.53;;;49.78;;
63012;SDS011;62113;45.624;11.700;2022-10-16T01:50:22;89.18;;;51.35;;
63012;SDS011;62113;45.624;11.700;2022-10-16T01:52:49;102.78;;;53.80;;
63012;SDS011;62113;45.624;11.700;2022-10-16T01:55:19;95.70;;;54.10;;
63012;SDS011;62113;45.624;11.700;2022-10-16T01:57:50;94.30;;;53.13;;
63012;SDS011;62113;45.624;11.700;2022-10-16T02:00:19;106.50;;;53.40;;
63012;SDS011;62113;45.624;11.700;2022-10-16T02:02:47;92.18;;;51.95;;
63012;SDS011;62113;45.624;11.700;2022-10-16T02:07:53;88.90;;;51.72;;
63012;SDS011;62113;45.624;11.700;2022-10-16T02:10:19;92.97;;;51.83;;
63012;SDS011;62113;45.624;11.700;2022-10-16T02:12:48;92.88;;;51.05;;
63012;SDS011;62113;45.624;11.700;2022-10-16T02:15:20;95.88;;;51.00;;
63012;SDS011;62113;45.624;11.700;2022-10-16T02:17:46;87.43;;;51.93;;
63012;SDS011;62113;45.624;11.700;2022-10-16T02:20:11;91.63;;;51.73;;
63012;SDS011;62113;45.624;11.700;2022-10-16T02:22:41;93.27;;;50.43;;
63012;SDS011;62113;45.624;11.700;2022-10-16T02:25:19;94.75;;;50.70;;
63012;SDS011;62113;45.624;11.700;2022-10-16T02:28:00;92.78;;;51.10;;
63012;SDS011;62113;45.624;11.700;2022-10-16T02:30:39;93.60;;;51.28;;
63012;SDS011;62113;45.624;11.700;2022-10-16T02:33:27;98.22;;;51.72;;
63012;SDS011;62113;45.624;11.700;2022-10-16T02:35:55;96.53;;;51.55;;
63012;SDS011;62113;45.624;11.700;2022-10-16T02:38:22;88.93;;;50.22;;
63012;SDS011;62113;45.624;11.700;2022-10-16T02:40:49;94.15;;;51.05;;
63012;SDS011;62113;45.624;11.700;2022-10-16T02:43:15;94.23;;;50.00;;
63012;SDS011;62113;45.624;11.700;2022-10-16T02:45:41;97.45;;;50.63;;
63012;SDS011;62113;45.624;11.700;2022-10-16T02:48:07;89.27;;;50.03;;
63012;SDS011;62113;45.624;11.700;2022-10-16T02:50:33;88.57;;;49.70;;
63012;SDS011;62113;45.624;11.700;2022-10-16T02:52:58;97.70;;;50.30;;
63012;SDS011;62113;45.624;11.700;2022-10-16T02:55:24;90.40;;;49.40;;
63012;SDS011;62113;45.624;11.700;2022-10-16T02:57:49;88.43;;;49.27;;
63012;SDS011;62113;45.624;11.700;2022-10-16T03:00:15;86.27;;;50.47;;
63012;SDS011;62113;45.624;11.700;2022-10-16T03:05:07;96.88;;;49.22;;
63012;SDS011;62113;45.624;11.700;2022-10-16T03:07:33;90.13;;;49.60;;
63012;SDS011;62113;45.624;11.700;2022-10-16T03:09:59;90.67;;;51.60;;
63012;SDS011;62113;45.624;11.700;2022-10-16T03:12:25;100.60;;;50.80;;
63012;SDS011;62113;45.624;11.700;2022-10-16T03:17:17;83.38;;;48.10;;
63012;SDS011;62113;45.624;11.700;2022-10-16T03:19:43;92.53;;;50.50;;
63012;SDS011;62113;45.624;11.700;2022-10-16T03:22:08;91.03;;;50.70;;
63012;SDS011;62113;45.624;11.700;2022-10-16T03:24:34;91.37;;;49.57;;
63012;SDS011;62113;45.624;11.700;2022-10-16T03:26:59;83.20;;;50.10;;
63012;SDS011;62113;45.624;11.700;2022-10-16T03:29:25;85.03;;;48.47;;
63012;SDS011;62113;45.624;11.700;2022-10-16T03:31:52;92.07;;;49.55;;
63012;SDS011;62113;45.624;11.700;2022-10-16T03:34:18;93.40;;;51.23;;
63012;SDS011;62113;45.624;11.700;2022-10-16T03:36:43;86.03;;;48.40;;
63012;SDS011;62113;45.624;11.700;2022-10-16T03:39:09;98.17;;;48.60;;
63012;SDS011;62113;45.624;11.700;2022-10-16T03:41:35;84.27;;;47.70;;
63012;SDS011;62113;45.624;11.700;2022-10-16T03:44:00;87.40;;;48.77;;
63012;SDS011;62113;45.624;11.700;2022-10-16T03:46:26;86.27;;;49.90;;
63012;SDS011;62113;45.624;11.700;2022-10-16T03:48:52;85.60;;;47.83;;
63012;SDS011;62113;45.624;11.700;2022-10-16T03:51:17;90.43;;;50.27;;
63012;SDS011;62113;45.624;11.700;2022-10-16T03:53:43;95.37;;;49.13;;
63012;SDS011;62113;45.624;11.700;2022-10-16T03:56:08;88.90;;;48.23;;
63012;SDS011;62113;45.624;11.700;2022-10-16T03:58:34;92.30;;;50.47;;
63012;SDS011;62113;45.624;11.700;2022-10-16T04:01:00;95.40;;;49.53;;
63012;SDS011;62113;45.624;11.700;2022-10-16T04:03:25;93.00;;;49.80;;
63012;SDS011;62113;45.624;11.700;2022-10-16T04:05:51;103.97;;;51.77;;
63012;SDS011;62113;45.624;11.700;2022-10-16T04:08:17;86.87;;;50.47;;
63012;SDS011;62113;45.624;11.700;2022-10-16T04:10:43;100.47;;;50.88;;
63012;SDS011;62113;45.624;11.700;2022-10-16T04:13:08;85.60;;;48.27;;
63012;SDS011;62113;45.624;11.700;2022-10-16T04:15:34;93.13;;;48.70;;
63012;SDS011;62113;45.624;11.700;2022-10-16T04:18:00;92.10;;;48.30;;
63012;SDS011;62113;45.624;11.700;2022-10-16T04:20:26;87.07;;;48.83;;
63012;SDS011;62113;45.624;11.700;2022-10-16T04:22:51;88.03;;;51.23;;
63012;SDS011;62113;45.624;11.700;2022-10-16T04:25:17;86.70;;;50.03;;
63012;SDS011;62113;45.624;11.700;2022-10-16T04:27:42;93.60;;;47.33;;
63012;SDS011;62113;45.624;11.700;2022-10-16T04:30:08;84.47;;;47.33;;
63012;SDS011;62113;45.624;11.700;2022-10-16T04:32:34;83.13;;;48.60;;
63012;SDS011;62113;45.624;11.700;2022-10-16T04:35:00;85.87;;;47.70;;
63012;SDS011;62113;45.624;11.700;2022-10-16T04:37:25;80.87;;;48.17;;
63012;SDS011;62113;45.624;11.700;2022-10-16T04:39:52;86.13;;;49.78;;
63012;SDS011;62113;45.624;11.700;2022-10-16T04:42:18;92.45;;;47.53;;
63012;SDS011;62113;45.624;11.700;2022-10-16T04:44:44;84.60;;;47.07;;
63012;SDS011;62113;45.624;11.700;2022-10-16T04:47:09;87.53;;;48.57;;
63012;SDS011;62113;45.624;11.700;2022-10-16T04:49:35;83.10;;;48.13;;
63012;SDS011;62113;45.624;11.700;2022-10-16T04:52:01;84.17;;;47.27;;
63012;SDS011;62113;45.624;11.700;2022-10-16T04:54:26;85.93;;;48.27;;
63012;SDS011;62113;45.624;11.700;2022-10-16T04:56:52;76.30;;;47.17;;
63012;SDS011;62113;45.624;11.700;2022-10-16T04:59:18;82.33;;;48.77;;
63012;SDS011;62113;45.624;11.700;2022-10-16T05:04:10;81.35;;;45.17;;
63012;SDS011;62113;45.624;11.700;2022-10-16T05:06:37;88.00;;;46.63;;
63012;SDS011;62113;45.624;11.700;2022-10-16T05:09:06;83.88;;;45.85;;
63012;SDS011;62113;45.624;11.700;2022-10-16T05:11:32;81.03;;;44.80;;
63012;SDS011;62113;45.624;11.700;2022-10-16T05:13:57;76.07;;;44.37;;
63012;SDS011;62113;45.624;11.700;2022-10-16T05:16:23;84.27;;;45.10;;
63012;SDS011;62113;45.624;11.700;2022-10-16T05:18:48;79.03;;;43.83;;
63012;SDS011;62113;45.624;11.700;2022-10-16T05:21:15;76.28;;;42.47;;
63012;SDS011;62113;45.624;11.700;2022-10-16T05:23:41;75.07;;;44.87;;
63012;SDS011;62113;45.624;11.700;2022-10-16T05:26:07;76.53;;;43.40;;
63012;SDS011;62113;45.624;11.700;2022-10-16T05:28:33;82.03;;;44.47;;
63012;SDS011;62113;45.624;11.700;2022-10-16T05:30:58;76.50;;;44.80;;
63012;SDS011;62113;45.624;11.700;2022-10-16T05:33:25;79.47;;;44.37;;
63012;SDS011;62113;45.624;11.700;2022-10-16T05:35:51;79.50;;;44.10;;
63012;SDS011;62113;45.624;11.700;2022-10-16T05:38:17;74.70;;;43.63;;
63012;SDS011;62113;45.624;11.700;2022-10-16T05:40:43;78.72;;;42.38;;
63012;SDS011;62113;45.624;11.700;2022-10-16T05:43:16;75.05;;;42.88;;
63012;SDS011;62113;45.624;11.700;2022-10-16T05:45:42;80.03;;;42.03;;
63012;SDS011;62113;45.624;11.700;2022-10-16T05:48:07;77.97;;;44.30;;
63012;SDS011;62113;45.624;11.700;2022-10-16T05:50:33;79.13;;;45.00;;
63012;SDS011;62113;45.624;11.700;2022-10-16T05:52:59;76.43;;;46.00;;
63012;SDS011;62113;45.624;11.700;2022-10-16T05:55:24;78.10;;;44.10;;
63012;SDS011;62113;45.624;11.700;2022-10-16T05:57:50;76.93;;;43.97;;
63012;SDS011;62113;45.624;11.700;2022-10-16T06:00:18;80.45;;;43.28;;
63012;SDS011;62113;45.624;11.700;2022-10-16T06:02:44;78.17;;;43.90;;
63012;SDS011;62113;45.624;11.700;2022-10-16T06:05:09;71.63;;;41.57;;
63012;SDS011;62113;45.624;11.700;2022-10-16T06:07:35;84.03;;;41.83;;
63012;SDS011;62113;45.624;11.700;2022-10-16T06:10:04;84.03;;;42.97;;
63012;SDS011;62113;45.624;11.700;2022-10-16T06:12:30;68.47;;;40.63;;
63012;SDS011;62113;45.624;11.700;2022-10-16T06:14:56;68.37;;;40.33;;
63012;SDS011;62113;45.624;11.700;2022-10-16T06:17:21;74.10;;;40.33;;
63012;SDS011;62113;45.624;11.700;2022-10-16T06:19:47;74.77;;;41.37;;
63012;SDS011;62113;45.624;11.700;2022-10-16T06:22:12;69.00;;;42.10;;
63012;SDS011;62113;45.624;11.700;2022-10-16T06:24:38;72.20;;;40.53;;
63012;SDS011;62113;45.624;11.700;2022-10-16T06:27:04;70.83;;;40.63;;
63012;SDS011;62113;45.624;11.700;2022-10-16T06:29:30;70.65;;;40.38;;
63012;SDS011;62113;45.624;11.700;2022-10-16T06:31:55;75.63;;;41.03;;
63012;SDS011;62113;45.624;11.700;2022-10-16T06:34:21;72.73;;;39.20;;
63012;SDS011;62113;45.624;11.700;2022-10-16T06:36:47;73.90;;;40.03;;
63012;SDS011;62113;45.624;11.700;2022-10-16T06:39:12;72.53;;;40.63;;
63012;SDS011;62113;45.624;11.700;2022-10-16T06:41:38;75.77;;;40.97;;
63012;SDS011;62113;45.624;11.700;2022-10-16T06:44:06;79.40;;;40.70;;
63012;SDS011;62113;45.624;11.700;2022-10-16T06:46:35;69.85;;;41.05;;
63012;SDS011;62113;45.624;11.700;2022-10-16T06:49:01;75.00;;;42.23;;
63012;SDS011;62113;45.624;11.700;2022-10-16T06:51:26;78.70;;;42.30;;
63012;SDS011;62113;45.624;11.700;2022-10-16T06:53:53;87.67;;;43.57;;
63012;SDS011;62113;45.624;11.700;2022-10-16T06:56:25;79.10;;;43.72;;
63012;SDS011;62113;45.624;11.700;2022-10-16T06:58:52;83.60;;;44.13;;
63012;SDS011;62113;45.624;11.700;2022-10-16T07:01:20;89.43;;;44.45;;
63012;SDS011;62113;45.624;11.700;2022-10-16T07:03:48;79.65;;;44.72;;
63012;SDS011;62113;45.624;11.700;2022-10-16T07:06:15;87.68;;;46.30;;
63012;SDS011;62113;45.624;11.700;2022-10-16T07:08:43;77.50;;;45.13;;
63012;SDS011;62113;45.624;11.700;2022-10-16T07:11:11;80.53;;;43.38;;
63012;SDS011;62113;45.624;11.700;2022-10-16T07:13:39;89.55;;;47.10;;
63012;SDS011;62113;45.624;11.700;2022-10-16T07:21:04;76.93;;;43.80;;
63012;SDS011;62113;45.624;11.700;2022-10-16T07:23:30;65.30;;;40.13;;
63012;SDS011;62113;45.624;11.700;2022-10-16T07:25:56;76.00;;;42.63;;
63012;SDS011;62113;45.624;11.700;2022-10-16T07:28:21;73.30;;;43.57;;
63012;SDS011;62113;45.624;11.700;2022-10-16T07:30:47;81.18;;;44.13;;
63012;SDS011;62113;45.624;11.700;2022-10-16T07:33:13;70.77;;;41.73;;
63012;SDS011;62113;45.624;11.700;2022-10-16T07:35:46;55.23;;;33.80;;
63012;SDS011;62113;45.624;11.700;2022-10-16T07:38:13;69.07;;;41.00;;
63012;SDS011;62113;45.624;11.700;2022-10-16T07:40:39;73.10;;;41.23;;
63012;SDS011;62113;45.624;11.700;2022-10-16T07:43:05;65.83;;;40.30;;
63012;SDS011;62113;45.624;11.700;2022-10-16T07:45:30;67.67;;;40.50;;
63012;SDS011;62113;45.624;11.700;2022-10-16T07:47:56;58.07;;;38.13;;
63012;SDS011;62113;45.624;11.700;2022-10-16T07:50:21;65.57;;;38.00;;
63012;SDS011;62113;45.624;11.700;2022-10-16T07:52:47;62.20;;;38.60;;
63012;SDS011;62113;45.624;11.700;2022-10-16T07:55:12;58.10;;;38.43;;
63012;SDS011;62113;45.624;11.700;2022-10-16T07:57:38;67.30;;;39.10;;
63012;SDS011;62113;45.624;11.700;2022-10-16T08:00:04;60.00;;;38.33;;
63012;SDS011;62113;45.624;11.700;2022-10-16T08:02:31;58.78;;;37.67;;
63012;SDS011;62113;45.624;11.700;2022-10-16T08:04:57;53.83;;;34.05;;
63012;SDS011;62113;45.624;11.700;2022-10-16T08:07:22;62.47;;;38.07;;
63012;SDS011;62113;45.624;11.700;2022-10-16T08:09:51;61.40;;;35.30;;
63012;SDS011;62113;45.624;11.700;2022-10-16T08:12:17;76.90;;;39.97;;
63012;SDS011;62113;45.624;11.700;2022-10-16T08:14:43;64.50;;;40.20;;
63012;SDS011;62113;45.624;11.700;2022-10-16T08:17:08;71.70;;;40.93;;
63012;SDS011;62113;45.624;11.700;2022-10-16T08:19:34;69.23;;;40.17;;
63012;SDS011;62113;45.624;11.700;2022-10-16T08:22:00;62.93;;;38.07;;
63012;SDS011;62113;45.624;11.700;2022-10-16T08:24:26;64.97;;;39.78;;
63012;SDS011;62113;45.624;11.700;2022-10-16T08:26:53;64.73;;;39.07;;
63012;SDS011;62113;45.624;11.700;2022-10-16T08:29:19;68.38;;;39.25;;
63012;SDS011;62113;45.624;11.700;2022-10-16T08:31:45;66.97;;;40.13;;
63012;SDS011;62113;45.624;11.700;2022-10-16T08:34:10;59.90;;;38.60;;
63012;SDS011;62113;45.624;11.700;2022-10-16T08:36:36;57.57;;;38.00;;
63012;SDS011;62113;45.624;11.700;2022-10-16T08:39:02;63.63;;;38.03;;
63012;SDS011;62113;45.624;11.700;2022-10-16T08:41:39;62.23;;;38.93;;
63012;SDS011;62113;45.624;11.700;2022-10-16T08:47:17;61.28;;;38.33;;
63012;SDS011;62113;45.624;11.700;2022-10-16T08:52:18;61.85;;;39.53;;
63012;SDS011;62113;45.624;11.700;2022-10-16T08:54:45;57.23;;;36.20;;
63012;SDS011;62113;45.624;11.700;2022-10-16T08:57:19;56.38;;;35.63;;
63012;SDS011;62113;45.624;11.700;2022-10-16T08:59:46;56.10;;;35.67;;
63012;SDS011;62113;45.624;11.700;2022-10-16T09:02:32;62.23;;;35.37;;
63012;SDS011;62113;45.624;11.700;2022-10-16T09:10:58;46.47;;;31.35;;
63012;SDS011;62113;45.624;11.700;2022-10-16T09:18:41;59.08;;;37.88;;
63012;SDS011;62113;45.624;11.700;2022-10-16T09:21:35;58.60;;;36.53;;
63012;SDS011;62113;45.624;11.700;2022-10-16T09:24:23;53.97;;;35.08;;
63012;SDS011;62113;45.624;11.700;2022-10-16T09:26:51;55.55;;;35.65;;
63012;SDS011;62113;45.624;11.700;2022-10-16T09:29:18;50.92;;;35.08;;
63012;SDS011;62113;45.624;11.700;2022-10-16T09:31:46;59.95;;;37.47;;
63012;SDS011;62113;45.624;11.700;2022-10-16T09:34:17;55.55;;;36.25;;
63012;SDS011;62113;45.624;11.700;2022-10-16T09:36:53;49.15;;;31.75;;
63012;SDS011;62113;45.624;11.700;2022-10-16T09:39:21;63.05;;;37.90;;
63012;SDS011;62113;45.624;11.700;2022-10-16T09:41:46;62.87;;;39.30;;
63012;SDS011;62113;45.624;11.700;2022-10-16T09:44:25;60.70;;;37.30;;
63012;SDS011;62113;45.624;11.700;2022-10-16T09:47:01;56.67;;;36.53;;
63012;SDS011;62113;45.624;11.700;2022-10-16T09:49:49;53.60;;;34.72;;
63012;SDS011;62113;45.624;11.700;2022-10-16T09:52:20;53.05;;;34.17;;
63012;SDS011;62113;45.624;11.700;2022-10-16T09:54:50;53.88;;;34.10;;
63012;SDS011;62113;45.624;11.700;2022-10-16T09:57:17;60.00;;;38.35;;
63012;SDS011;62113;45.624;11.700;2022-10-16T09:59:47;58.88;;;35.88;;
63012;SDS011;62113;45.624;11.700;2022-10-16T10:02:15;55.90;;;36.50;;
63012;SDS011;62113;45.624;11.700;2022-10-16T10:04:45;55.70;;;34.88;;
63012;SDS011;62113;45.624;11.700;2022-10-16T10:07:26;49.17;;;32.70;;
63012;SDS011;62113;45.624;11.700;2022-10-16T10:09:58;52.25;;;34.20;;
63012;SDS011;62113;45.624;11.700;2022-10-16T10:12:25;55.75;;;33.53;;
63012;SDS011;62113;45.624;11.700;2022-10-16T10:14:57;52.25;;;33.60;;
63012;SDS011;62113;45.624;11.700;2022-10-16T10:17:29;56.75;;;34.35;;
63012;SDS011;62113;45.624;11.700;2022-10-16T10:19:58;53.25;;;33.58;;
63012;SDS011;62113;45.624;11.700;2022-10-16T10:30:11;48.03;;;31.30;;
63012;SDS011;62113;45.624;11.700;2022-10-16T10:38:31;48.65;;;30.52;;
63012;SDS011;62113;45.624;11.700;2022-10-16T10:46:57;53.28;;;31.10;;
63012;SDS011;62113;45.624;11.700;2022-10-16T10:49:41;50.00;;;31.38;;
63012;SDS011;62113;45.624;11.700;2022-10-16T10:57:21;41.38;;;26.83;;
63012;SDS011;62113;45.624;11.700;2022-10-16T11:02:25;42.33;;;28.70;;
63012;SDS011;62113;45.624;11.700;2022-10-16T11:10:41;39.03;;;27.38;;
63012;SDS011;62113;45.624;11.700;2022-10-16T11:13:16;48.92;;;30.75;;
63012;SDS011;62113;45.624;11.700;2022-10-16T11:15:59;42.83;;;26.75;;
63012;SDS011;62113;45.624;11.700;2022-10-16T11:18:46;38.58;;;25.80;;
63012;SDS011;62113;45.624;11.700;2022-10-16T11:21:25;47.47;;;29.35;;
63012;SDS011;62113;45.624;11.700;2022-10-16T11:23:59;45.80;;;27.63;;
63012;SDS011;62113;45.624;11.700;2022-10-16T11:26:33;45.17;;;26.33;;
63012;SDS011;62113;45.624;11.700;2022-10-16T11:29:04;45.97;;;26.30;;
63012;SDS011;62113;45.624;11.700;2022-10-16T11:31:39;39.00;;;26.02;;
63012;SDS011;62113;45.624;11.700;2022-10-16T11:34:25;36.58;;;24.48;;
63012;SDS011;62113;45.624;11.700;2022-10-16T11:37:12;42.00;;;26.77;;
63012;SDS011;62113;45.624;11.700;2022-10-16T11:39:42;39.33;;;26.25;;
63012;SDS011;62113;45.624;11.700;2022-10-16T11:48:04;46.10;;;25.88;;
63012;SDS011;62113;45.624;11.700;2022-10-16T11:56:18;42.75;;;23.88;;
63012;SDS011;62113;45.624;11.700;2022-10-16T12:07:11;39.90;;;24.70;;
63012;SDS011;62113;45.624;11.700;2022-10-16T12:09:41;43.17;;;25.95;;
63012;SDS011;62113;45.624;11.700;2022-10-16T12:12:24;39.70;;;25.77;;
63012;SDS011;62113;45.624;11.700;2022-10-16T12:15:02;34.13;;;24.13;;
63012;SDS011;62113;45.624;11.700;2022-10-16T12:17:43;40.70;;;26.30;;
63012;SDS011;62113;45.624;11.700;2022-10-16T12:22:40;41.80;;;25.65;;
63012;SDS011;62113;45.624;11.700;2022-10-16T12:25:33;35.50;;;23.65;;
63012;SDS011;62113;45.624;11.700;2022-10-16T12:28:02;37.47;;;23.70;;
63012;SDS011;62113;45.624;11.700;2022-10-16T12:30:42;38.95;;;26.25;;
63012;SDS011;62113;45.624;11.700;2022-10-16T12:35:56;36.80;;;24.33;;
63012;SDS011;62113;45.624;11.700;2022-10-16T12:40:59;38.92;;;25.20;;
63012;SDS011;62113;45.624;11.700;2022-10-16T12:43:36;41.00;;;25.95;;
63012;SDS011;62113;45.624;11.700;2022-10-16T12:48:38;39.40;;;25.20;;
63012;SDS011;62113;45.624;11.700;2022-10-16T12:54:03;41.33;;;26.20;;
63012;SDS011;62113;45.624;11.700;2022-10-16T12:59:09;38.55;;;25.92;;
63012;SDS011;62113;45.624;11.700;2022-10-16T13:04:49;40.25;;;27.58;;
63012;SDS011;62113;45.624;11.700;2022-10-16T13:07:42;42.33;;;26.55;;
63012;SDS011;62113;45.624;11.700;2022-10-16T13:10:40;47.08;;;27.45;;
63012;SDS011;62113;45.624;11.700;2022-10-16T13:29:38;43.72;;;27.80;;
63012;SDS011;62113;45.624;11.700;2022-10-16T13:32:07;39.47;;;26.00;;
63012;SDS011;62113;45.624;11.700;2022-10-16T13:34:47;45.50;;;26.65;;
63012;SDS011;62113;45.624;11.700;2022-10-16T13:37:19;39.92;;;27.02;;
63012;SDS011;62113;45.624;11.700;2022-10-16T13:39:47;38.63;;;25.77;;
63012;SDS011;62113;45.624;11.700;2022-10-16T13:42:16;41.47;;;26.60;;
63012;SDS011;62113;45.624;11.700;2022-10-16T13:44:52;45.70;;;30.30;;
63012;SDS011;62113;45.624;11.700;2022-10-16T13:47:22;34.88;;;24.13;;
63012;SDS011;62113;45.624;11.700;2022-10-16T13:49:58;38.10;;;27.02;;
63012;SDS011;62113;45.624;11.700;2022-10-16T13:52:29;44.10;;;28.42;;
63012;SDS011;62113;45.624;11.700;2022-10-16T13:54:55;45.08;;;27.60;;
63012;SDS011;62113;45.624;11.700;2022-10-16T13:57:22;41.37;;;27.47;;
63012;SDS011;62113;45.624;11.700;2022-10-16T13:59:49;48.88;;;28.50;;
63012;SDS011;62113;45.624;11.700;2022-10-16T14:02:31;51.45;;;27.77;;
63012;SDS011;62113;45.624;11.700;2022-10-16T14:05:00;41.90;;;26.15;;
63012;SDS011;62113;45.624;11.700;2022-10-16T14:07:28;39.92;;;25.92;;
63012;SDS011;62113;45.624;11.700;2022-10-16T14:09:57;40.58;;;27.52;;
63012;SDS011;62113;45.624;11.700;2022-10-16T14:12:26;44.35;;;26.73;;
63012;SDS011;62113;45.624;11.700;2022-10-16T14:14:53;38.40;;;25.40;;
63012;SDS011;62113;45.624;11.700;2022-10-16T14:19:58;37.97;;;25.23;;
63012;SDS011;62113;45.624;11.700;2022-10-16T14:22:32;39.72;;;25.05;;
63012;SDS011;62113;45.624;11.700;2022-10-16T14:30:30;37.40;;;23.63;;
63012;SDS011;62113;45.624;11.700;2022-10-16T14:32:59;39.03;;;24.77;;
63012;SDS011;62113;45.624;11.700;2022-10-16T14:35:34;37.67;;;25.83;;
63012;SDS011;62113;45.624;11.700;2022-10-16T14:38:02;41.63;;;26.38;;
63012;SDS011;62113;45.624;11.700;2022-10-16T14:40:33;38.92;;;23.75;;
63012;SDS011;62113;45.624;11.700;2022-10-16T14:43:01;38.08;;;26.45;;
63012;SDS011;62113;45.624;11.700;2022-10-16T14:45:29;36.83;;;24.70;;
63012;SDS011;62113;45.624;11.700;2022-10-16T14:47:57;42.83;;;26.60;;
63012;SDS011;62113;45.624;11.700;2022-10-16T14:50:28;40.30;;;26.75;;
63012;SDS011;62113;45.624;11.700;2022-10-16T14:52:53;39.63;;;27.47;;
63012;SDS011;62113;45.624;11.700;2022-10-16T14:55:19;39.95;;;26.77;;
63012;SDS011;62113;45.624;11.700;2022-10-16T14:57:45;40.13;;;26.13;;
63012;SDS011;62113;45.624;11.700;2022-10-16T15:00:22;38.95;;;27.17;;
63012;SDS011;62113;45.624;11.700;2022-10-16T15:02:49;42.97;;;28.33;;
63012;SDS011;62113;45.624;11.700;2022-10-16T15:07:44;43.80;;;29.13;;
63012;SDS011;62113;45.624;11.700;2022-10-16T15:12:36;41.13;;;26.95;;
63012;SDS011;62113;45.624;11.700;2022-10-16T15:15:09;39.50;;;25.87;;
63012;SDS011;62113;45.624;11.700;2022-10-16T15:17:59;39.58;;;27.27;;
63012;SDS011;62113;45.624;11.700;2022-10-16T15:20:33;44.85;;;27.77;;
63012;SDS011;62113;45.624;11.700;2022-10-16T15:23:01;41.10;;;27.63;;
63012;SDS011;62113;45.624;11.700;2022-10-16T15:25:42;49.13;;;27.42;;
63012;SDS011;62113;45.624;11.700;2022-10-16T15:28:10;45.35;;;28.27;;
63012;SDS011;62113;45.624;11.700;2022-10-16T15:30:36;45.08;;;28.52;;
63012;SDS011;62113;45.624;11.700;2022-10-16T15:33:03;42.92;;;28.27;;
63012;SDS011;62113;45.624;11.700;2022-10-16T15:37:55;44.63;;;28.33;;
63012;SDS011;62113;45.624;11.700;2022-10-16T15:40:21;44.63;;;27.87;;
63012;SDS011;62113;45.624;11.700;2022-10-16T15:42:47;42.83;;;27.52;;
63012;SDS011;62113;45.624;11.700;2022-10-16T15:45:14;46.03;;;29.67;;
63012;SDS011;62113;45.624;11.700;2022-10-16T15:47:40;46.88;;;29.15;;
63012;SDS011;62113;45.624;11.700;2022-10-16T15:50:08;46.95;;;28.50;;
63012;SDS011;62113;45.624;11.700;2022-10-16T15:52:36;45.88;;;28.70;;
63012;SDS011;62113;45.624;11.700;2022-10-16T15:55:02;47.27;;;28.80;;
63012;SDS011;62113;45.624;11.700;2022-10-16T15:57:28;53.97;;;30.10;;
63012;SDS011;62113;45.624;11.700;2022-10-16T15:59:54;52.63;;;28.88;;
63012;SDS011;62113;45.624;11.700;2022-10-16T16:02:20;50.47;;;28.10;;
63012;SDS011;62113;45.624;11.700;2022-10-16T16:04:45;51.43;;;28.67;;
63012;SDS011;62113;45.624;11.700;2022-10-16T16:07:11;49.47;;;30.43;;
63012;SDS011;62113;45.624;11.700;2022-10-16T16:09:36;47.23;;;30.17;;
63012;SDS011;62113;45.624;11.700;2022-10-16T16:12:02;48.60;;;30.53;;
63012;SDS011;62113;45.624;11.700;2022-10-16T16:14:28;53.75;;;29.70;;
63012;SDS011;62113;45.624;11.700;2022-10-16T16:16:54;53.33;;;30.33;;
63012;SDS011;62113;45.624;11.700;2022-10-16T16:19:20;47.58;;;30.38;;
63012;SDS011;62113;45.624;11.700;2022-10-16T16:21:47;56.45;;;30.92;;
63012;SDS011;62113;45.624;11.700;2022-10-16T16:26:38;45.72;;;28.95;;
63012;SDS011;62113;45.624;11.700;2022-10-16T16:29:08;47.22;;;29.02;;
63012;SDS011;62113;45.624;11.700;2022-10-16T16:31:38;57.95;;;31.52;;
63012;SDS011;62113;45.624;11.700;2022-10-16T16:34:04;52.80;;;29.73;;
63012;SDS011;62113;45.624;11.700;2022-10-16T16:36:30;55.20;;;31.98;;
63012;SDS011;62113;45.624;11.700;2022-10-16T16:38:56;50.90;;;30.58;;
63012;SDS011;62113;45.624;11.700;2022-10-16T16:41:23;49.75;;;30.67;;
63012;SDS011;62113;45.624;11.700;2022-10-16T16:43:51;49.25;;;30.90;;
63012;SDS011;62113;45.624;11.700;2022-10-16T16:46:17;52.33;;;30.02;;
63012;SDS011;62113;45.624;11.700;2022-10-16T16:48:44;51.45;;;31.27;;
63012;SDS011;62113;45.624;11.700;2022-10-16T16:51:11;47.10;;;30.92;;
63012;SDS011;62113;45.624;11.700;2022-10-16T16:53:45;46.67;;;30.38;;
63012;SDS011;62113;45.624;11.700;2022-10-16T16:56:12;53.53;;;32.47;;